sensor_id;sensor_type;location;lat;lon;timestamp;P1;durP1;ratioP1;P2;durP2;ratioP2
33162;SDS011;29282;45.656;11.302;2022-11-20T00:01:31;8.13;;;5.18;;
33162;SDS011;29282;45.656;11.302;2022-11-20T00:03:51;7.88;;;5.28;;
33162;SDS011;29282;45.656;11.302;2022-11-20T00:06:19;7.43;;;5.13;;
33162;SDS011;29282;45.656;11.302;2022-11-20T00:08:45;7.18;;;5.03;;
33162;SDS011;29282;45.656;11.302;2022-11-20T00:11:12;7.05;;;5.28;;
33162;SDS011;29282;45.656;11.302;2022-11-20T00:13:39;8.10;;;5.13;;
33162;SDS011;29282;45.656;11.302;2022-11-20T00:16:06;7.38;;;4.80;;
33162;SDS011;29282;45.656;11.302;2022-11-20T00:18:34;6.72;;;4.78;;
33162;SDS011;29282;45.656;11.302;2022-11-20T00:21:01;7.80;;;4.88;;
33162;SDS011;29282;45.656;11.302;2022-11-20T00:23:31;10.27;;;5.25;;
33162;SDS011;29282;45.656;11.302;2022-11-20T00:25:56;9.93;;;5.07;;
33162;SDS011;29282;45.656;11.302;2022-11-20T00:28:27;8.63;;;4.95;;
33162;SDS011;29282;45.656;11.302;2022-11-20T00:30:54;6.97;;;5.32;;
33162;SDS011;29282;45.656;11.302;2022-11-20T00:33:28;8.98;;;4.90;;
33162;SDS011;29282;45.656;11.302;2022-11-20T00:36:06;7.07;;;5.00;;
33162;SDS011;29282;45.656;11.302;2022-11-20T00:38:34;6.95;;;4.55;;
33162;SDS011;29282;45.656;11.302;2022-11-20T00:41:01;10.27;;;4.45;;
33162;SDS011;29282;45.656;11.302;2022-11-20T00:43:28;9.80;;;5.18;;
33162;SDS011;29282;45.656;11.302;2022-11-20T00:46:01;7.05;;;5.10;;
33162;SDS011;29282;45.656;11.302;2022-11-20T00:48:28;8.60;;;5.10;;
33162;SDS011;29282;45.656;11.302;2022-11-20T00:50:54;7.97;;;5.00;;
33162;SDS011;29282;45.656;11.302;2022-11-20T00:53:20;8.15;;;4.80;;
33162;SDS011;29282;45.656;11.302;2022-11-20T00:55:53;9.15;;;4.97;;
33162;SDS011;29282;45.656;11.302;2022-11-20T00:58:23;5.88;;;4.50;;
33162;SDS011;29282;45.656;11.302;2022-11-20T01:00:54;5.85;;;4.60;;
33162;SDS011;29282;45.656;11.302;2022-11-20T01:03:25;5.85;;;4.07;;
33162;SDS011;29282;45.656;11.302;2022-11-20T01:05:51;8.38;;;4.78;;
33162;SDS011;29282;45.656;11.302;2022-11-20T01:08:16;7.03;;;4.20;;
33162;SDS011;29282;45.656;11.302;2022-11-20T01:10:42;6.32;;;4.80;;
33162;SDS011;29282;45.656;11.302;2022-11-20T01:13:07;6.20;;;4.25;;
33162;SDS011;29282;45.656;11.302;2022-11-20T01:15:51;5.85;;;3.92;;
33162;SDS011;29282;45.656;11.302;2022-11-20T01:18:17;7.22;;;4.68;;
33162;SDS011;29282;45.656;11.302;2022-11-20T01:20:42;6.35;;;3.95;;
33162;SDS011;29282;45.656;11.302;2022-11-20T01:23:08;7.90;;;4.65;;
33162;SDS011;29282;45.656;11.302;2022-11-20T01:25:33;10.18;;;4.88;;
33162;SDS011;29282;45.656;11.302;2022-11-20T01:28:02;6.68;;;4.57;;
33162;SDS011;29282;45.656;11.302;2022-11-20T01:30:28;5.88;;;4.10;;
33162;SDS011;29282;45.656;11.302;2022-11-20T01:32:54;6.85;;;4.70;;
33162;SDS011;29282;45.656;11.302;2022-11-20T01:35:20;8.05;;;4.28;;
33162;SDS011;29282;45.656;11.302;2022-11-20T01:37:49;7.50;;;4.90;;
33162;SDS011;29282;45.656;11.302;2022-11-20T01:40:15;7.30;;;4.75;;
33162;SDS011;29282;45.656;11.302;2022-11-20T01:42:44;6.18;;;4.28;;
33162;SDS011;29282;45.656;11.302;2022-11-20T01:48:15;5.60;;;3.88;;
33162;SDS011;29282;45.656;11.302;2022-11-20T01:50:42;6.97;;;4.07;;
33162;SDS011;29282;45.656;11.302;2022-11-20T01:53:09;5.97;;;4.18;;
33162;SDS011;29282;45.656;11.302;2022-11-20T01:55:41;6.82;;;4.78;;
33162;SDS011;29282;45.656;11.302;2022-11-20T01:58:12;5.82;;;4.13;;
33162;SDS011;29282;45.656;11.302;2022-11-20T02:00:38;5.07;;;4.05;;
33162;SDS011;29282;45.656;11.302;2022-11-20T02:03:11;5.57;;;3.65;;
33162;SDS011;29282;45.656;11.302;2022-11-20T02:05:42;6.38;;;4.13;;
33162;SDS011;29282;45.656;11.302;2022-11-20T02:08:13;7.05;;;3.88;;
33162;SDS011;29282;45.656;11.302;2022-11-20T02:10:38;6.82;;;4.05;;
33162;SDS011;29282;45.656;11.302;2022-11-20T02:13:04;4.97;;;3.95;;
33162;SDS011;29282;45.656;11.302;2022-11-20T02:15:49;7.93;;;3.90;;
33162;SDS011;29282;45.656;11.302;2022-11-20T02:18:16;5.82;;;4.07;;
33162;SDS011;29282;45.656;11.302;2022-11-20T02:20:44;5.35;;;4.15;;
33162;SDS011;29282;45.656;11.302;2022-11-20T02:26:08;5.78;;;4.03;;
33162;SDS011;29282;45.656;11.302;2022-11-20T02:28:38;6.87;;;3.93;;
33162;SDS011;29282;45.656;11.302;2022-11-20T02:31:04;5.30;;;4.18;;
33162;SDS011;29282;45.656;11.302;2022-11-20T02:33:30;6.28;;;3.83;;
33162;SDS011;29282;45.656;11.302;2022-11-20T02:35:55;5.15;;;3.50;;
33162;SDS011;29282;45.656;11.302;2022-11-20T02:38:21;6.97;;;4.10;;
33162;SDS011;29282;45.656;11.302;2022-11-20T02:40:46;6.35;;;3.80;;
33162;SDS011;29282;45.656;11.302;2022-11-20T02:43:12;5.53;;;3.63;;
33162;SDS011;29282;45.656;11.302;2022-11-20T02:45:37;4.82;;;3.60;;
33162;SDS011;29282;45.656;11.302;2022-11-20T02:48:03;5.05;;;3.53;;
33162;SDS011;29282;45.656;11.302;2022-11-20T02:50:29;7.05;;;3.50;;
33162;SDS011;29282;45.656;11.302;2022-11-20T02:52:54;4.45;;;3.42;;
33162;SDS011;29282;45.656;11.302;2022-11-20T02:55:20;4.57;;;3.50;;
33162;SDS011;29282;45.656;11.302;2022-11-20T02:57:45;4.85;;;3.42;;
33162;SDS011;29282;45.656;11.302;2022-11-20T03:00:11;4.63;;;3.72;;
33162;SDS011;29282;45.656;11.302;2022-11-20T03:02:37;7.07;;;3.75;;
33162;SDS011;29282;45.656;11.302;2022-11-20T03:05:02;4.75;;;3.50;;
33162;SDS011;29282;45.656;11.302;2022-11-20T03:07:28;5.43;;;3.70;;
33162;SDS011;29282;45.656;11.302;2022-11-20T03:09:54;4.03;;;3.40;;
33162;SDS011;29282;45.656;11.302;2022-11-20T03:12:19;6.88;;;3.55;;
33162;SDS011;29282;45.656;11.302;2022-11-20T03:14:45;5.10;;;3.72;;
33162;SDS011;29282;45.656;11.302;2022-11-20T03:17:10;6.43;;;3.50;;
33162;SDS011;29282;45.656;11.302;2022-11-20T03:19:36;4.32;;;3.38;;
33162;SDS011;29282;45.656;11.302;2022-11-20T03:22:01;5.07;;;3.67;;
33162;SDS011;29282;45.656;11.302;2022-11-20T03:24:27;3.97;;;3.13;;
33162;SDS011;29282;45.656;11.302;2022-11-20T03:26:52;5.78;;;3.47;;
33162;SDS011;29282;45.656;11.302;2022-11-20T03:29:18;6.10;;;3.38;;
33162;SDS011;29282;45.656;11.302;2022-11-20T03:31:43;4.05;;;3.38;;
33162;SDS011;29282;45.656;11.302;2022-11-20T03:34:09;3.97;;;3.22;;
33162;SDS011;29282;45.656;11.302;2022-11-20T03:36:40;5.82;;;3.60;;
33162;SDS011;29282;45.656;11.302;2022-11-20T03:39:06;5.13;;;3.22;;
33162;SDS011;29282;45.656;11.302;2022-11-20T03:41:35;3.97;;;3.22;;
33162;SDS011;29282;45.656;11.302;2022-11-20T03:44:03;3.83;;;3.05;;
33162;SDS011;29282;45.656;11.302;2022-11-20T03:46:30;4.72;;;3.47;;
33162;SDS011;29282;45.656;11.302;2022-11-20T03:48:56;4.03;;;2.97;;
33162;SDS011;29282;45.656;11.302;2022-11-20T03:51:23;4.88;;;3.30;;
33162;SDS011;29282;45.656;11.302;2022-11-20T03:53:51;4.95;;;3.38;;
33162;SDS011;29282;45.656;11.302;2022-11-20T03:56:19;4.72;;;3.10;;
33162;SDS011;29282;45.656;11.302;2022-11-20T03:58:47;4.38;;;3.08;;
33162;SDS011;29282;45.656;11.302;2022-11-20T04:01:13;3.80;;;2.90;;
33162;SDS011;29282;45.656;11.302;2022-11-20T04:03:41;4.22;;;3.20;;
33162;SDS011;29282;45.656;11.302;2022-11-20T04:06:12;3.65;;;2.83;;
33162;SDS011;29282;45.656;11.302;2022-11-20T04:08:46;3.50;;;2.90;;
33162;SDS011;29282;45.656;11.302;2022-11-20T04:11:14;3.60;;;2.97;;
33162;SDS011;29282;45.656;11.302;2022-11-20T04:13:40;4.93;;;3.10;;
33162;SDS011;29282;45.656;11.302;2022-11-20T04:16:08;3.30;;;2.80;;
33162;SDS011;29282;45.656;11.302;2022-11-20T04:18:35;5.05;;;3.25;;
33162;SDS011;29282;45.656;11.302;2022-11-20T04:21:01;3.67;;;3.03;;
33162;SDS011;29282;45.656;11.302;2022-11-20T04:23:27;3.50;;;2.80;;
33162;SDS011;29282;45.656;11.302;2022-11-20T04:25:53;4.95;;;3.47;;
33162;SDS011;29282;45.656;11.302;2022-11-20T04:28:18;4.13;;;3.00;;
33162;SDS011;29282;45.656;11.302;2022-11-20T04:30:44;4.97;;;2.80;;
33162;SDS011;29282;45.656;11.302;2022-11-20T04:33:10;4.60;;;2.85;;
33162;SDS011;29282;45.656;11.302;2022-11-20T04:35:36;3.55;;;2.60;;
33162;SDS011;29282;45.656;11.302;2022-11-20T04:38:02;4.07;;;3.03;;
33162;SDS011;29282;45.656;11.302;2022-11-20T04:40:28;4.75;;;2.78;;
33162;SDS011;29282;45.656;11.302;2022-11-20T04:42:56;3.22;;;2.53;;
33162;SDS011;29282;45.656;11.302;2022-11-20T04:45:22;3.58;;;2.70;;
33162;SDS011;29282;45.656;11.302;2022-11-20T04:47:48;3.85;;;2.92;;
33162;SDS011;29282;45.656;11.302;2022-11-20T04:50:14;3.53;;;2.90;;
33162;SDS011;29282;45.656;11.302;2022-11-20T04:52:40;4.53;;;3.17;;
33162;SDS011;29282;45.656;11.302;2022-11-20T04:55:06;3.03;;;2.72;;
33162;SDS011;29282;45.656;11.302;2022-11-20T04:57:32;3.90;;;2.83;;
33162;SDS011;29282;45.656;11.302;2022-11-20T04:59:57;3.58;;;2.70;;
33162;SDS011;29282;45.656;11.302;2022-11-20T05:02:23;3.58;;;2.60;;
33162;SDS011;29282;45.656;11.302;2022-11-20T05:04:48;4.40;;;2.92;;
33162;SDS011;29282;45.656;11.302;2022-11-20T05:07:14;5.82;;;3.10;;
33162;SDS011;29282;45.656;11.302;2022-11-20T05:09:39;3.55;;;2.92;;
33162;SDS011;29282;45.656;11.302;2022-11-20T05:12:06;3.97;;;2.97;;
33162;SDS011;29282;45.656;11.302;2022-11-20T05:14:33;2.80;;;2.50;;
33162;SDS011;29282;45.656;11.302;2022-11-20T05:16:58;3.03;;;2.60;;
33162;SDS011;29282;45.656;11.302;2022-11-20T05:19:24;2.90;;;2.45;;
33162;SDS011;29282;45.656;11.302;2022-11-20T05:21:49;4.13;;;3.15;;
33162;SDS011;29282;45.656;11.302;2022-11-20T05:24:15;3.80;;;2.80;;
33162;SDS011;29282;45.656;11.302;2022-11-20T05:26:41;4.88;;;2.58;;
33162;SDS011;29282;45.656;11.302;2022-11-20T05:29:06;3.65;;;2.70;;
33162;SDS011;29282;45.656;11.302;2022-11-20T05:31:32;6.57;;;2.88;;
33162;SDS011;29282;45.656;11.302;2022-11-20T05:33:57;3.38;;;2.60;;
33162;SDS011;29282;45.656;11.302;2022-11-20T05:36:23;2.72;;;2.40;;
33162;SDS011;29282;45.656;11.302;2022-11-20T05:38:48;2.85;;;2.47;;
33162;SDS011;29282;45.656;11.302;2022-11-20T05:41:15;2.40;;;2.20;;
33162;SDS011;29282;45.656;11.302;2022-11-20T05:43:43;3.00;;;2.50;;
33162;SDS011;29282;45.656;11.302;2022-11-20T05:46:11;4.32;;;2.38;;
33162;SDS011;29282;45.656;11.302;2022-11-20T05:48:38;2.67;;;2.47;;
33162;SDS011;29282;45.656;11.302;2022-11-20T05:51:05;2.80;;;2.50;;
33162;SDS011;29282;45.656;11.302;2022-11-20T05:53:33;2.72;;;2.42;;
33162;SDS011;29282;45.656;11.302;2022-11-20T05:56:03;3.88;;;2.30;;
33162;SDS011;29282;45.656;11.302;2022-11-20T05:58:31;2.78;;;2.22;;
33162;SDS011;29282;45.656;11.302;2022-11-20T06:01:30;3.08;;;2.60;;
33162;SDS011;29282;45.656;11.302;2022-11-20T06:03:50;3.38;;;2.50;;
33162;SDS011;29282;45.656;11.302;2022-11-20T06:06:20;2.88;;;2.08;;
33162;SDS011;29282;45.656;11.302;2022-11-20T06:08:46;3.53;;;2.47;;
33162;SDS011;29282;45.656;11.302;2022-11-20T06:11:13;3.10;;;2.28;;
33162;SDS011;29282;45.656;11.302;2022-11-20T06:13:39;3.22;;;2.40;;
33162;SDS011;29282;45.656;11.302;2022-11-20T06:16:05;3.10;;;2.30;;
33162;SDS011;29282;45.656;11.302;2022-11-20T06:18:31;3.13;;;2.40;;
33162;SDS011;29282;45.656;11.302;2022-11-20T06:21:03;2.88;;;2.35;;
33162;SDS011;29282;45.656;11.302;2022-11-20T06:23:30;3.35;;;2.55;;
33162;SDS011;29282;45.656;11.302;2022-11-20T06:25:58;2.40;;;2.03;;
33162;SDS011;29282;45.656;11.302;2022-11-20T06:28:26;4.57;;;2.20;;
33162;SDS011;29282;45.656;11.302;2022-11-20T06:30:52;4.18;;;2.60;;
33162;SDS011;29282;45.656;11.302;2022-11-20T06:33:17;3.10;;;2.30;;
33162;SDS011;29282;45.656;11.302;2022-11-20T06:35:43;2.58;;;2.35;;
33162;SDS011;29282;45.656;11.302;2022-11-20T06:38:08;2.15;;;1.90;;
33162;SDS011;29282;45.656;11.302;2022-11-20T06:40:34;2.92;;;2.25;;
33162;SDS011;29282;45.656;11.302;2022-11-20T06:42:59;3.00;;;2.40;;
33162;SDS011;29282;45.656;11.302;2022-11-20T06:45:25;2.28;;;2.00;;
33162;SDS011;29282;45.656;11.302;2022-11-20T06:47:50;3.17;;;2.20;;
33162;SDS011;29282;45.656;11.302;2022-11-20T06:50:16;2.75;;;2.15;;
33162;SDS011;29282;45.656;11.302;2022-11-20T06:52:41;2.72;;;2.30;;
33162;SDS011;29282;45.656;11.302;2022-11-20T06:55:07;2.53;;;2.10;;
33162;SDS011;29282;45.656;11.302;2022-11-20T06:57:32;3.05;;;2.45;;
33162;SDS011;29282;45.656;11.302;2022-11-20T06:59:58;2.80;;;2.20;;
33162;SDS011;29282;45.656;11.302;2022-11-20T07:02:23;2.88;;;2.10;;
33162;SDS011;29282;45.656;11.302;2022-11-20T07:04:49;2.35;;;2.15;;
33162;SDS011;29282;45.656;11.302;2022-11-20T07:07:14;4.15;;;2.40;;
33162;SDS011;29282;45.656;11.302;2022-11-20T07:09:40;2.50;;;2.25;;
33162;SDS011;29282;45.656;11.302;2022-11-20T07:12:05;2.50;;;2.08;;
33162;SDS011;29282;45.656;11.302;2022-11-20T07:14:31;2.63;;;2.28;;
33162;SDS011;29282;45.656;11.302;2022-11-20T07:16:56;2.42;;;2.13;;
33162;SDS011;29282;45.656;11.302;2022-11-20T07:19:22;2.20;;;2.00;;
33162;SDS011;29282;45.656;11.302;2022-11-20T07:21:47;2.90;;;2.40;;
33162;SDS011;29282;45.656;11.302;2022-11-20T07:24:13;2.40;;;2.20;;
33162;SDS011;29282;45.656;11.302;2022-11-20T07:26:38;3.40;;;2.05;;
33162;SDS011;29282;45.656;11.302;2022-11-20T07:29:04;2.92;;;2.40;;
33162;SDS011;29282;45.656;11.302;2022-11-20T07:31:30;2.70;;;2.25;;
33162;SDS011;29282;45.656;11.302;2022-11-20T07:33:56;3.08;;;2.08;;
33162;SDS011;29282;45.656;11.302;2022-11-20T07:36:21;3.92;;;2.03;;
33162;SDS011;29282;45.656;11.302;2022-11-20T07:38:47;2.38;;;1.90;;
33162;SDS011;29282;45.656;11.302;2022-11-20T07:41:13;2.58;;;2.13;;
33162;SDS011;29282;45.656;11.302;2022-11-20T07:43:38;2.08;;;1.88;;
33162;SDS011;29282;45.656;11.302;2022-11-20T07:46:04;2.40;;;2.20;;
33162;SDS011;29282;45.656;11.302;2022-11-20T07:48:29;2.13;;;1.92;;
33162;SDS011;29282;45.656;11.302;2022-11-20T07:50:55;4.75;;;2.20;;
33162;SDS011;29282;45.656;11.302;2022-11-20T07:53:21;3.67;;;2.25;;
33162;SDS011;29282;45.656;11.302;2022-11-20T07:55:48;2.35;;;2.15;;
33162;SDS011;29282;45.656;11.302;2022-11-20T07:58:15;2.55;;;2.10;;
33162;SDS011;29282;45.656;11.302;2022-11-20T08:00:40;2.78;;;2.22;;
33162;SDS011;29282;45.656;11.302;2022-11-20T08:03:07;4.85;;;2.15;;
33162;SDS011;29282;45.656;11.302;2022-11-20T08:05:32;2.38;;;1.85;;
33162;SDS011;29282;45.656;11.302;2022-11-20T08:07:58;3.30;;;2.10;;
33162;SDS011;29282;45.656;11.302;2022-11-20T08:10:24;2.95;;;2.20;;
33162;SDS011;29282;45.656;11.302;2022-11-20T08:12:50;2.40;;;2.20;;
33162;SDS011;29282;45.656;11.302;2022-11-20T08:15:36;1.98;;;1.77;;
33162;SDS011;29282;45.656;11.302;2022-11-20T08:18:03;2.75;;;1.90;;
33162;SDS011;29282;45.656;11.302;2022-11-20T08:20:29;2.70;;;2.25;;
33162;SDS011;29282;45.656;11.302;2022-11-20T08:22:59;2.88;;;2.22;;
33162;SDS011;29282;45.656;11.302;2022-11-20T08:25:26;2.72;;;2.15;;
33162;SDS011;29282;45.656;11.302;2022-11-20T08:27:52;2.78;;;2.20;;
33162;SDS011;29282;45.656;11.302;2022-11-20T08:30:17;2.65;;;2.22;;
33162;SDS011;29282;45.656;11.302;2022-11-20T08:32:43;3.67;;;2.10;;
33162;SDS011;29282;45.656;11.302;2022-11-20T08:35:08;2.92;;;2.17;;
33162;SDS011;29282;45.656;11.302;2022-11-20T08:37:34;4.38;;;2.60;;
33162;SDS011;29282;45.656;11.302;2022-11-20T08:40:03;2.30;;;1.90;;
33162;SDS011;29282;45.656;11.302;2022-11-20T08:42:28;5.55;;;2.53;;
33162;SDS011;29282;45.656;11.302;2022-11-20T08:44:54;2.55;;;2.15;;
33162;SDS011;29282;45.656;11.302;2022-11-20T08:47:19;3.35;;;2.20;;
33162;SDS011;29282;45.656;11.302;2022-11-20T08:49:45;4.57;;;2.35;;
33162;SDS011;29282;45.656;11.302;2022-11-20T08:52:10;3.17;;;2.20;;
33162;SDS011;29282;45.656;11.302;2022-11-20T08:54:36;2.55;;;2.05;;
33162;SDS011;29282;45.656;11.302;2022-11-20T08:57:01;4.18;;;2.42;;
33162;SDS011;29282;45.656;11.302;2022-11-20T08:59:27;3.22;;;2.33;;
33162;SDS011;29282;45.656;11.302;2022-11-20T09:01:52;3.45;;;1.90;;
33162;SDS011;29282;45.656;11.302;2022-11-20T09:04:18;4.38;;;2.50;;
33162;SDS011;29282;45.656;11.302;2022-11-20T09:06:44;5.18;;;2.25;;
33162;SDS011;29282;45.656;11.302;2022-11-20T09:09:09;3.90;;;2.50;;
33162;SDS011;29282;45.656;11.302;2022-11-20T09:11:35;5.32;;;2.40;;
33162;SDS011;29282;45.656;11.302;2022-11-20T09:14:01;3.13;;;2.20;;
33162;SDS011;29282;45.656;11.302;2022-11-20T09:16:27;5.00;;;2.20;;
33162;SDS011;29282;45.656;11.302;2022-11-20T09:18:53;4.25;;;2.15;;
33162;SDS011;29282;45.656;11.302;2022-11-20T09:21:18;5.35;;;2.50;;
33162;SDS011;29282;45.656;11.302;2022-11-20T09:23:44;7.05;;;2.47;;
33162;SDS011;29282;45.656;11.302;2022-11-20T09:26:12;5.30;;;2.38;;
33162;SDS011;29282;45.656;11.302;2022-11-20T09:28:39;3.90;;;2.60;;
33162;SDS011;29282;45.656;11.302;2022-11-20T09:31:06;4.97;;;2.63;;
33162;SDS011;29282;45.656;11.302;2022-11-20T09:33:32;6.25;;;2.25;;
33162;SDS011;29282;45.656;11.302;2022-11-20T09:35:58;3.75;;;2.30;;
33162;SDS011;29282;45.656;11.302;2022-11-20T09:38:24;3.35;;;2.28;;
33162;SDS011;29282;45.656;11.302;2022-11-20T09:40:55;5.63;;;2.30;;
33162;SDS011;29282;45.656;11.302;2022-11-20T09:46:21;3.25;;;2.38;;
33162;SDS011;29282;45.656;11.302;2022-11-20T09:51:39;3.33;;;2.35;;
33162;SDS011;29282;45.656;11.302;2022-11-20T09:54:16;4.43;;;2.28;;
33162;SDS011;29282;45.656;11.302;2022-11-20T09:56:47;4.68;;;2.17;;
33162;SDS011;29282;45.656;11.302;2022-11-20T09:59:21;3.38;;;2.30;;
33162;SDS011;29282;45.656;11.302;2022-11-20T10:01:54;6.85;;;2.58;;
33162;SDS011;29282;45.656;11.302;2022-11-20T10:04:20;4.60;;;2.70;;
33162;SDS011;29282;45.656;11.302;2022-11-20T10:06:49;5.60;;;2.72;;
33162;SDS011;29282;45.656;11.302;2022-11-20T10:10:00;2.58;;;2.17;;
33162;SDS011;29282;45.656;11.302;2022-11-20T10:23:45;9.18;;;2.58;;
33162;SDS011;29282;45.656;11.302;2022-11-20T10:26:38;12.40;;;3.00;;
33162;SDS011;29282;45.656;11.302;2022-11-20T10:29:32;12.52;;;3.35;;
33162;SDS011;29282;45.656;11.302;2022-11-20T10:32:07;12.68;;;3.10;;
33162;SDS011;29282;45.656;11.302;2022-11-20T10:35:00;7.30;;;2.92;;
33162;SDS011;29282;45.656;11.302;2022-11-20T10:37:26;10.85;;;2.78;;
33162;SDS011;29282;45.656;11.302;2022-11-20T10:42:29;14.60;;;3.08;;
33162;SDS011;29282;45.656;11.302;2022-11-20T10:45:02;7.30;;;3.20;;
33162;SDS011;29282;45.656;11.302;2022-11-20T10:47:40;8.23;;;2.70;;
33162;SDS011;29282;45.656;11.302;2022-11-20T10:50:09;6.65;;;3.00;;
33162;SDS011;29282;45.656;11.302;2022-11-20T10:58:30;7.10;;;2.45;;
33162;SDS011;29282;45.656;11.302;2022-11-20T11:01:18;15.00;;;3.33;;
33162;SDS011;29282;45.656;11.302;2022-11-20T11:03:48;9.70;;;3.10;;
33162;SDS011;29282;45.656;11.302;2022-11-20T11:06:23;11.40;;;3.00;;
33162;SDS011;29282;45.656;11.302;2022-11-20T11:09:00;4.78;;;2.42;;
33162;SDS011;29282;45.656;11.302;2022-11-20T11:11:33;6.88;;;3.13;;
33162;SDS011;29282;45.656;11.302;2022-11-20T11:14:06;10.38;;;3.15;;
33162;SDS011;29282;45.656;11.302;2022-11-20T11:16:33;8.82;;;3.22;;
33162;SDS011;29282;45.656;11.302;2022-11-20T11:19:32;7.40;;;2.90;;
33162;SDS011;29282;45.656;11.302;2022-11-20T11:21:54;9.00;;;2.80;;
33162;SDS011;29282;45.656;11.302;2022-11-20T11:24:25;5.82;;;2.67;;
33162;SDS011;29282;45.656;11.302;2022-11-20T11:26:54;7.22;;;2.47;;
33162;SDS011;29282;45.656;11.302;2022-11-20T11:29:23;7.78;;;3.05;;
33162;SDS011;29282;45.656;11.302;2022-11-20T11:32:02;7.47;;;2.75;;
33162;SDS011;29282;45.656;11.302;2022-11-20T11:34:29;8.63;;;3.20;;
33162;SDS011;29282;45.656;11.302;2022-11-20T11:36:58;6.22;;;2.50;;
33162;SDS011;29282;45.656;11.302;2022-11-20T11:39:26;11.13;;;3.28;;
33162;SDS011;29282;45.656;11.302;2022-11-20T11:41:53;7.20;;;2.78;;
33162;SDS011;29282;45.656;11.302;2022-11-20T11:44:37;6.88;;;2.30;;
33162;SDS011;29282;45.656;11.302;2022-11-20T11:47:31;13.35;;;3.20;;
33162;SDS011;29282;45.656;11.302;2022-11-20T11:50:22;6.43;;;2.97;;
33162;SDS011;29282;45.656;11.302;2022-11-20T11:55:35;6.93;;;2.50;;
33162;SDS011;29282;45.656;11.302;2022-11-20T11:58:14;4.45;;;2.30;;
33162;SDS011;29282;45.656;11.302;2022-11-20T12:01:04;6.68;;;2.80;;
33162;SDS011;29282;45.656;11.302;2022-11-20T12:03:51;7.45;;;2.60;;
33162;SDS011;29282;45.656;11.302;2022-11-20T12:06:31;10.35;;;2.63;;
33162;SDS011;29282;45.656;11.302;2022-11-20T12:09:01;6.35;;;2.70;;
33162;SDS011;29282;45.656;11.302;2022-11-20T12:11:30;9.60;;;2.72;;
33162;SDS011;29282;45.656;11.302;2022-11-20T12:14:04;5.40;;;2.97;;
33162;SDS011;29282;45.656;11.302;2022-11-20T12:16:52;5.57;;;2.80;;
33162;SDS011;29282;45.656;11.302;2022-11-20T12:19:20;6.60;;;2.83;;
33162;SDS011;29282;45.656;11.302;2022-11-20T12:27:36;5.47;;;2.70;;
33162;SDS011;29282;45.656;11.302;2022-11-20T12:30:27;6.13;;;2.47;;
33162;SDS011;29282;45.656;11.302;2022-11-20T13:01:47;3.85;;;2.40;;
33162;SDS011;29282;45.656;11.302;2022-11-20T13:07:19;3.72;;;2.30;;
33162;SDS011;29282;45.656;11.302;2022-11-20T13:09:49;2.85;;;2.30;;
33162;SDS011;29282;45.656;11.302;2022-11-20T13:15:02;3.50;;;2.33;;
33162;SDS011;29282;45.656;11.302;2022-11-20T13:18:04;4.53;;;2.40;;
33162;SDS011;29282;45.656;11.302;2022-11-20T13:20:33;4.97;;;2.40;;
33162;SDS011;29282;45.656;11.302;2022-11-20T13:23:00;3.75;;;1.92;;
33162;SDS011;29282;45.656;11.302;2022-11-20T13:27:56;3.67;;;2.22;;
33162;SDS011;29282;45.656;11.302;2022-11-20T13:30:24;3.88;;;2.33;;
33162;SDS011;29282;45.656;11.302;2022-11-20T13:38:07;6.75;;;2.47;;
33162;SDS011;29282;45.656;11.302;2022-11-20T13:41:11;4.38;;;2.13;;
33162;SDS011;29282;45.656;11.302;2022-11-20T13:43:49;9.63;;;2.25;;
33162;SDS011;29282;45.656;11.302;2022-11-20T13:46:15;6.35;;;2.22;;
33162;SDS011;29282;45.656;11.302;2022-11-20T13:48:41;4.45;;;2.50;;
33162;SDS011;29282;45.656;11.302;2022-11-20T13:54:01;12.93;;;2.45;;
33162;SDS011;29282;45.656;11.302;2022-11-20T14:02:23;5.82;;;2.35;;
33162;SDS011;29282;45.656;11.302;2022-11-20T14:04:53;5.05;;;2.35;;
33162;SDS011;29282;45.656;11.302;2022-11-20T14:07:23;3.75;;;2.08;;
33162;SDS011;29282;45.656;11.302;2022-11-20T14:09:57;4.47;;;2.25;;
33162;SDS011;29282;45.656;11.302;2022-11-20T14:12:27;3.35;;;2.00;;
33162;SDS011;29282;45.656;11.302;2022-11-20T14:14:55;4.75;;;2.20;;
33162;SDS011;29282;45.656;11.302;2022-11-20T14:17:22;3.22;;;1.92;;
33162;SDS011;29282;45.656;11.302;2022-11-20T14:20:00;2.92;;;2.35;;
33162;SDS011;29282;45.656;11.302;2022-11-20T14:22:29;3.10;;;2.28;;
33162;SDS011;29282;45.656;11.302;2022-11-20T14:25:05;2.22;;;1.80;;
33162;SDS011;29282;45.656;11.302;2022-11-20T14:27:44;3.60;;;2.20;;
33162;SDS011;29282;45.656;11.302;2022-11-20T14:30:23;3.88;;;2.38;;
33162;SDS011;29282;45.656;11.302;2022-11-20T14:32:50;5.28;;;2.05;;
33162;SDS011;29282;45.656;11.302;2022-11-20T14:35:34;4.35;;;2.40;;
33162;SDS011;29282;45.656;11.302;2022-11-20T14:38:02;2.35;;;2.03;;
33162;SDS011;29282;45.656;11.302;2022-11-20T14:42:55;3.15;;;2.20;;
33162;SDS011;29282;45.656;11.302;2022-11-20T14:45:22;4.30;;;2.22;;
33162;SDS011;29282;45.656;11.302;2022-11-20T14:47:49;3.10;;;2.20;;
33162;SDS011;29282;45.656;11.302;2022-11-20T14:50:21;2.80;;;2.17;;
33162;SDS011;29282;45.656;11.302;2022-11-20T14:52:55;4.05;;;2.25;;
33162;SDS011;29282;45.656;11.302;2022-11-20T14:55:30;3.60;;;2.53;;
33162;SDS011;29282;45.656;11.302;2022-11-20T14:58:01;6.55;;;2.72;;
33162;SDS011;29282;45.656;11.302;2022-11-20T15:00:32;3.10;;;2.05;;
33162;SDS011;29282;45.656;11.302;2022-11-20T15:02:59;5.20;;;2.47;;
33162;SDS011;29282;45.656;11.302;2022-11-20T15:05:49;4.68;;;2.45;;
33162;SDS011;29282;45.656;11.302;2022-11-20T15:08:16;4.38;;;2.20;;
33162;SDS011;29282;45.656;11.302;2022-11-20T15:10:46;3.90;;;2.13;;
33162;SDS011;29282;45.656;11.302;2022-11-20T15:13:36;2.78;;;2.28;;
33162;SDS011;29282;45.656;11.302;2022-11-20T15:16:03;3.85;;;2.30;;
33162;SDS011;29282;45.656;11.302;2022-11-20T15:18:53;5.07;;;2.33;;
33162;SDS011;29282;45.656;11.302;2022-11-20T15:21:20;4.55;;;2.13;;
33162;SDS011;29282;45.656;11.302;2022-11-20T15:23:46;2.80;;;2.10;;
33162;SDS011;29282;45.656;11.302;2022-11-20T15:26:12;3.63;;;2.30;;
33162;SDS011;29282;45.656;11.302;2022-11-20T15:28:44;3.35;;;2.33;;
33162;SDS011;29282;45.656;11.302;2022-11-20T15:31:16;3.05;;;1.92;;
33162;SDS011;29282;45.656;11.302;2022-11-20T15:33:43;5.78;;;2.10;;
33162;SDS011;29282;45.656;11.302;2022-11-20T15:36:09;3.15;;;2.08;;
33162;SDS011;29282;45.656;11.302;2022-11-20T15:38:35;3.63;;;2.20;;
33162;SDS011;29282;45.656;11.302;2022-11-20T15:41:01;3.10;;;2.00;;
33162;SDS011;29282;45.656;11.302;2022-11-20T15:43:27;4.03;;;2.13;;
33162;SDS011;29282;45.656;11.302;2022-11-20T15:45:56;2.97;;;2.58;;
33162;SDS011;29282;45.656;11.302;2022-11-20T15:48:29;2.90;;;2.03;;
33162;SDS011;29282;45.656;11.302;2022-11-20T15:53:35;2.70;;;2.13;;
33162;SDS011;29282;45.656;11.302;2022-11-20T15:56:05;4.03;;;2.35;;
33162;SDS011;29282;45.656;11.302;2022-11-20T15:58:31;5.05;;;2.40;;
33162;SDS011;29282;45.656;11.302;2022-11-20T16:00:59;5.80;;;2.20;;
33162;SDS011;29282;45.656;11.302;2022-11-20T16:03:25;3.70;;;2.13;;
33162;SDS011;29282;45.656;11.302;2022-11-20T16:05:50;3.88;;;2.05;;
33162;SDS011;29282;45.656;11.302;2022-11-20T16:08:16;5.25;;;2.25;;
33162;SDS011;29282;45.656;11.302;2022-11-20T16:10:41;3.30;;;2.30;;
33162;SDS011;29282;45.656;11.302;2022-11-20T16:13:13;3.45;;;2.35;;
33162;SDS011;29282;45.656;11.302;2022-11-20T16:15:59;3.55;;;2.20;;
33162;SDS011;29282;45.656;11.302;2022-11-20T16:18:29;3.70;;;2.55;;
33162;SDS011;29282;45.656;11.302;2022-11-20T16:20:55;4.82;;;2.80;;